Time;durP1;ratioP1;P1;durP2;ratioP2;P2;SDS_P1;SDS_P2;PMS_P1;PMS_P2;Temp;Humidity;BMP_temperature;BMP_pressure;BME280_temperature;BME280_humidity;BME280_pressure;Samples;Min_cycle;Max_cycle;Signal;HPM_P1;HPM_P2
2023/12/29 00:01:48;;;;;;;36.05;4.45;;;;;;;;;;5053911;28;20041;-74
2023/12/29 00:04:14;;;;;;;18.73;3.42;;;;;;;;;;5070976;28;20051;-75
2023/12/29 00:06:41;;;;;;;25.40;3.20;;;;;;;;;;5070419;28;20044;-74
2023/12/29 00:09:07;;;;;;;20.23;3.38;;;;;;;;;;5031013;28;20500;-74
2023/12/29 00:11:33;;;;;;;25.27;3.33;;;;;;;;;;5032164;28;20104;-74
2023/12/29 00:14:00;;;;;;;19.60;3.40;;;;;;;;;;5065312;28;20488;-74
2023/12/29 00:16:27;;;;;;;21.90;3.28;;;;;;;;;;5070591;28;20384;-75
2023/12/29 00:18:53;;;;;;;23.15;3.58;;;;;;;;;;5056807;28;20352;-74
2023/12/29 00:21:21;;;;;;;18.42;2.58;;;;;;;;;;5050203;28;20022;-75
2023/12/29 00:23:47;;;;;;;22.05;2.80;;;;;;;;;;5064943;28;20062;-75
2023/12/29 00:26:13;;;;;;;18.67;3.00;;;;;;;;;;5069956;28;20020;-74
2023/12/29 00:28:40;;;;;;;23.35;3.45;;;;;;;;;;5057954;28;20032;-75
2023/12/29 00:31:09;;;;;;;25.92;3.45;;;;;;;;;;5051253;28;20032;-74
2023/12/29 00:33:35;;;;;;;21.02;3.65;;;;;;;;;;5062688;28;20119;-75
2023/12/29 00:36:01;;;;;;;22.50;3.50;;;;;;;;;;5070876;28;20032;-75
2023/12/29 00:38:30;;;;;;;24.42;3.92;;;;;;;;;;5061016;28;20022;-75
2023/12/29 00:40:56;;;;;;;22.17;3.03;;;;;;;;;;5051423;28;20009;-75
2023/12/29 00:43:22;;;;;;;19.75;2.47;;;;;;;;;;5059757;28;20013;-75
2023/12/29 00:45:49;;;;;;;24.58;2.85;;;;;;;;;;5069578;28;20024;-75
2023/12/29 00:48:15;;;;;;;21.60;2.47;;;;;;;;;;5062930;28;20025;-74
2023/12/29 00:50:41;;;;;;;22.13;3.03;;;;;;;;;;5049311;28;20013;-75
2023/12/29 00:53:07;;;;;;;25.05;3.05;;;;;;;;;;5054318;28;20495;-75
2023/12/29 00:55:33;;;;;;;21.52;2.88;;;;;;;;;;5071248;28;20028;-75
2023/12/29 00:57:59;;;;;;;17.45;2.78;;;;;;;;;;5066599;28;20032;-75
2023/12/29 01:00:25;;;;;;;19.23;2.75;;;;;;;;;;5049315;28;20307;-75
2023/12/29 01:02:51;;;;;;;21.08;2.45;;;;;;;;;;5051555;28;20487;-75
2023/12/29 01:05:17;;;;;;;20.17;2.55;;;;;;;;;;5070645;28;20103;-74
2023/12/29 01:07:43;;;;;;;18.23;2.78;;;;;;;;;;5070753;28;20016;-74
2023/12/29 01:10:10;;;;;;;23.92;2.55;;;;;;;;;;5049611;28;20021;-74
2023/12/29 01:12:36;;;;;;;18.00;3.05;;;;;;;;;;5050206;28;20019;-74
2023/12/29 01:15:02;;;;;;;32.78;4.38;;;;;;;;;;5069379;28;20021;-74
2023/12/29 01:17:28;;;;;;;28.73;3.58;;;;;;;;;;5070456;28;20048;-74
2023/12/29 01:19:57;;;;;;;28.55;3.78;;;;;;;;;;5052286;28;20017;-74
2023/12/29 01:22:23;;;;;;;23.90;2.70;;;;;;;;;;5048956;28;20107;-74
2023/12/29 01:24:49;;;;;;;23.98;2.92;;;;;;;;;;5066996;28;20044;-75
2023/12/29 01:27:15;;;;;;;21.60;2.67;;;;;;;;;;5069436;28;20392;-74
2023/12/29 01:29:41;;;;;;;21.98;2.88;;;;;;;;;;5053918;28;20385;-75
2023/12/29 01:32:08;;;;;;;17.58;3.08;;;;;;;;;;5050817;28;20021;-74
2023/12/29 01:34:34;;;;;;;15.63;1.98;;;;;;;;;;5061796;28;20043;-74
2023/12/29 01:37:00;;;;;;;16.80;2.58;;;;;;;;;;5070258;28;20768;-74
2023/12/29 01:39:26;;;;;;;14.60;2.17;;;;;;;;;;5057008;28;20149;-74
2023/12/29 01:41:52;;;;;;;14.15;2.20;;;;;;;;;;5048719;28;20108;-74
2023/12/29 01:44:20;;;;;;;14.85;2.72;;;;;;;;;;5060281;28;20013;-74
2023/12/29 01:46:46;;;;;;;8.45;1.90;;;;;;;;;;5069410;28;20013;-74
2023/12/29 01:49:14;;;;;;;11.40;2.50;;;;;;;;;;5059811;28;20492;-74
2023/12/29 01:51:41;;;;;;;14.30;1.90;;;;;;;;;;5049582;28;20073;-74
2023/12/29 01:54:07;;;;;;;9.75;2.65;;;;;;;;;;5056208;28;20024;-74
2023/12/29 01:56:33;;;;;;;17.58;2.50;;;;;;;;;;5069312;28;20024;-74
2023/12/29 01:58:59;;;;;;;15.65;2.92;;;;;;;;;;5063139;28;20021;-74
2023/12/29 02:01:25;;;;;;;19.48;2.55;;;;;;;;;;5048907;28;20109;-74
2023/12/29 02:03:52;;;;;;;16.90;2.42;;;;;;;;;;5053007;28;20021;-74
2023/12/29 02:06:18;;;;;;;22.33;3.15;;;;;;;;;;5069126;28;20016;-74
2023/12/29 02:08:45;;;;;;;16.65;2.20;;;;;;;;;;5065168;28;20020;-74
2023/12/29 02:11:11;;;;;;;19.63;2.65;;;;;;;;;;5049125;28;20098;-74
2023/12/29 02:13:37;;;;;;;15.93;3.00;;;;;;;;;;5051491;28;20013;-74
2023/12/29 02:16:07;;;;;;;15.25;2.75;;;;;;;;;;5069337;28;20354;-74
2023/12/29 02:18:35;;;;;;;17.38;2.65;;;;;;;;;;5067653;28;20432;-74
2023/12/29 02:21:02;;;;;;;17.17;2.58;;;;;;;;;;5047899;28;20461;-74
2023/12/29 02:23:28;;;;;;;21.77;3.10;;;;;;;;;;5050072;28;20020;-74
2023/12/29 02:25:56;;;;;;;23.33;3.97;;;;;;;;;;5068889;28;20541;-74
2023/12/29 02:28:26;;;;;;;29.25;4.50;;;;;;;;;;5067959;28;20316;-74
2023/12/29 02:31:14;;;;;;;25.88;4.00;;;;;;;;;;5050701;28;20017;-75
2023/12/29 02:33:41;;;;;;;27.63;5.20;;;;;;;;;;5048187;28;20029;-74
2023/12/29 02:36:08;;;;;;;31.05;4.90;;;;;;;;;;5067755;28;20504;-74
2023/12/29 02:38:34;;;;;;;21.80;4.03;;;;;;;;;;5068895;28;20103;-74
2023/12/29 02:41:00;;;;;;;26.02;4.15;;;;;;;;;;5050312;28;20016;-74
2023/12/29 02:43:26;;;;;;;27.73;4.50;;;;;;;;;;5048261;28;20021;-74
2023/12/29 02:45:52;;;;;;;27.27;3.65;;;;;;;;;;5066364;28;20028;-74
2023/12/29 02:48:18;;;;;;;23.02;3.92;;;;;;;;;;5069329;28;20020;-74
2023/12/29 02:50:44;;;;;;;29.80;3.60;;;;;;;;;;5051548;28;20017;-74
2023/12/29 02:53:10;;;;;;;28.40;4.20;;;;;;;;;;5049288;28;20436;-74
2023/12/29 02:55:37;;;;;;;22.02;3.35;;;;;;;;;;5062636;28;20017;-75
2023/12/29 02:58:03;;;;;;;28.58;3.83;;;;;;;;;;5067463;28;20063;-74
2023/12/29 03:00:29;;;;;;;28.75;4.22;;;;;;;;;;5055799;28;20078;-74
2023/12/29 03:02:55;;;;;;;33.40;4.10;;;;;;;;;;5047477;28;20017;-74
2023/12/29 03:05:21;;;;;;;27.90;3.75;;;;;;;;;;5060391;28;20016;-74
2023/12/29 03:07:47;;;;;;;29.50;4.18;;;;;;;;;;5070302;28;20391;-74
2023/12/29 03:10:13;;;;;;;27.05;3.67;;;;;;;;;;5061110;28;20028;-74
2023/12/29 03:12:39;;;;;;;22.88;3.83;;;;;;;;;;5052077;28;20025;-74
2023/12/29 03:15:06;;;;;;;25.60;2.75;;;;;;;;;;5060841;28;20023;-74
2023/12/29 03:17:32;;;;;;;20.75;3.17;;;;;;;;;;5071974;28;20017;-74
2023/12/29 03:19:58;;;;;;;22.83;3.08;;;;;;;;;;5064855;28;20017;-74
2023/12/29 03:22:24;;;;;;;17.52;2.90;;;;;;;;;;5051885;28;20023;-74
2023/12/29 03:24:50;;;;;;;18.30;3.13;;;;;;;;;;5056868;28;20009;-74
2023/12/29 03:27:16;;;;;;;17.98;2.53;;;;;;;;;;5070947;28;20093;-74
2023/12/29 03:29:42;;;;;;;20.27;3.47;;;;;;;;;;5067466;28;20496;-74
2023/12/29 03:32:08;;;;;;;22.77;3.58;;;;;;;;;;5051350;28;20025;-74
2023/12/29 03:34:34;;;;;;;21.05;2.88;;;;;;;;;;5053253;28;20043;-74
2023/12/29 03:37:00;;;;;;;17.92;2.80;;;;;;;;;;5071131;28;20051;-74
2023/12/29 03:39:26;;;;;;;22.15;3.08;;;;;;;;;;5071377;28;20078;-74
2023/12/29 03:41:52;;;;;;;15.98;2.88;;;;;;;;;;5051333;28;20020;-74
2023/12/29 03:44:18;;;;;;;21.77;3.80;;;;;;;;;;5051372;28;20013;-74
2023/12/29 03:46:44;;;;;;;17.60;2.58;;;;;;;;;;5067922;28;20016;-74
2023/12/29 03:49:11;;;;;;;20.10;2.75;;;;;;;;;;5071023;28;20052;-74
2023/12/29 03:51:37;;;;;;;20.67;3.22;;;;;;;;;;5056083;28;20060;-74
2023/12/29 03:54:03;;;;;;;17.80;3.30;;;;;;;;;;5052119;28;20025;-74
2023/12/29 03:56:29;;;;;;;20.40;3.40;;;;;;;;;;5064735;28;20021;-74
2023/12/29 03:58:55;;;;;;;21.10;3.05;;;;;;;;;;5072346;28;20048;-74
2023/12/29 04:01:21;;;;;;;15.18;2.60;;;;;;;;;;5057550;28;20045;-75
2023/12/29 04:03:47;;;;;;;28.73;3.83;;;;;;;;;;5052382;28;20044;-74
2023/12/29 04:06:13;;;;;;;20.80;3.22;;;;;;;;;;5061836;28;20020;-74
2023/12/29 04:08:39;;;;;;;22.70;2.90;;;;;;;;;;5072073;28;20021;-74
2023/12/29 04:11:05;;;;;;;17.65;2.85;;;;;;;;;;5060515;28;20381;-74
2023/12/29 04:13:32;;;;;;;20.17;4.32;;;;;;;;;;5051627;28;20052;-74
2023/12/29 04:15:58;;;;;;;14.50;2.60;;;;;;;;;;5059738;28;20031;-74
2023/12/29 04:18:24;;;;;;;24.30;3.97;;;;;;;;;;5070102;28;20178;-74
2023/12/29 04:20:50;;;;;;;22.15;2.70;;;;;;;;;;5062994;28;20497;-74
2023/12/29 04:23:17;;;;;;;21.95;3.00;;;;;;;;;;5050831;28;20162;-74
2023/12/29 04:25:43;;;;;;;21.75;3.42;;;;;;;;;;5057532;28;20016;-74
2023/12/29 04:28:09;;;;;;;19.20;3.25;;;;;;;;;;5069905;28;20024;-74
2023/12/29 04:30:35;;;;;;;24.85;3.30;;;;;;;;;;5067776;28;20495;-74
2023/12/29 04:33:01;;;;;;;18.85;2.80;;;;;;;;;;5050073;28;20021;-74
2023/12/29 04:35:27;;;;;;;14.18;2.58;;;;;;;;;;5052334;28;20033;-74
2023/12/29 04:37:53;;;;;;;19.33;2.83;;;;;;;;;;5069915;28;20473;-74
2023/12/29 04:40:19;;;;;;;22.92;3.85;;;;;;;;;;5069200;28;20023;-74
2023/12/29 04:42:45;;;;;;;21.35;2.92;;;;;;;;;;5050143;28;20056;-74
2023/12/29 04:45:12;;;;;;;20.20;3.50;;;;;;;;;;5050948;28;20353;-74
2023/12/29 04:47:38;;;;;;;21.40;3.25;;;;;;;;;;5070886;28;20021;-75
2023/12/29 04:50:05;;;;;;;16.25;2.60;;;;;;;;;;5071415;28;20464;-74
2023/12/29 04:52:31;;;;;;;17.65;3.30;;;;;;;;;;5052151;28;20473;-74
2023/12/29 04:54:57;;;;;;;21.55;3.55;;;;;;;;;;5051215;28;20009;-74
2023/12/29 04:57:23;;;;;;;20.05;3.67;;;;;;;;;;5049431;28;20040;-74
2023/12/29 04:59:49;;;;;;;20.42;2.95;;;;;;;;;;5049973;28;20021;-74
2023/12/29 05:02:15;;;;;;;19.13;3.10;;;;;;;;;;5063365;28;20493;-74
2023/12/29 05:04:41;;;;;;;19.45;3.30;;;;;;;;;;5070725;28;20015;-74
2023/12/29 05:07:09;;;;;;;17.73;2.92;;;;;;;;;;5057704;28;20024;-74
2023/12/29 05:09:35;;;;;;;29.67;4.93;;;;;;;;;;5049768;28;20040;-74
2023/12/29 05:12:01;;;;;;;22.98;3.05;;;;;;;;;;5062088;28;20096;-78
2023/12/29 05:14:27;;;;;;;24.75;3.63;;;;;;;;;;5069230;28;20066;-75
2023/12/29 05:16:53;;;;;;;20.15;3.50;;;;;;;;;;5061162;28;20039;-74
2023/12/29 05:19:19;;;;;;;24.08;3.15;;;;;;;;;;5050741;28;20448;-74
2023/12/29 05:21:46;;;;;;;27.95;3.05;;;;;;;;;;5057255;28;20036;-74
2023/12/29 05:24:12;;;;;;;28.67;4.03;;;;;;;;;;5070813;28;20016;-74
2023/12/29 05:26:38;;;;;;;32.72;3.38;;;;;;;;;;5052261;28;20017;-74
2023/12/29 05:29:04;;;;;;;22.80;3.30;;;;;;;;;;5048875;28;20020;-74
2023/12/29 05:31:30;;;;;;;20.50;2.95;;;;;;;;;;5050145;28;20012;-74
2023/12/29 05:33:56;;;;;;;18.83;3.15;;;;;;;;;;5048419;28;20029;-74
2023/12/29 05:36:22;;;;;;;23.73;4.32;;;;;;;;;;5049637;28;20021;-74
2023/12/29 05:38:48;;;;;;;21.40;3.85;;;;;;;;;;5048799;28;20477;-74
2023/12/29 05:41:14;;;;;;;23.70;3.78;;;;;;;;;;5048964;28;20461;-74
2023/12/29 05:43:40;;;;;;;26.27;3.22;;;;;;;;;;5050495;28;20021;-74
2023/12/29 05:46:13;;;;;;;25.92;3.20;;;;;;;;;;5048877;28;20099;-75
2023/12/29 05:48:39;;;;;;;22.70;3.08;;;;;;;;;;5068771;28;20442;-74
2023/12/29 05:51:09;;;;;;;19.08;3.30;;;;;;;;;;5068159;28;20040;-74
2023/12/29 05:53:35;;;;;;;23.90;3.90;;;;;;;;;;5050132;28;20107;-74
2023/12/29 05:56:01;;;;;;;18.85;2.67;;;;;;;;;;5048640;28;20112;-82
2023/12/29 05:58:27;;;;;;;22.35;3.40;;;;;;;;;;5066281;28;20388;-74
2023/12/29 06:00:55;;;;;;;23.30;3.47;;;;;;;;;;5068835;28;20472;-75
2023/12/29 06:03:21;;;;;;;25.48;2.85;;;;;;;;;;5061026;28;20027;-74
2023/12/29 06:05:48;;;;;;;25.48;3.42;;;;;;;;;;5068324;28;20070;-74
2023/12/29 06:08:14;;;;;;;24.73;2.92;;;;;;;;;;5064552;28;20020;-74
2023/12/29 06:10:40;;;;;;;26.38;3.55;;;;;;;;;;5057456;28;20473;-74
2023/12/29 06:13:06;;;;;;;20.67;3.08;;;;;;;;;;5061050;28;20021;-74
2023/12/29 06:15:32;;;;;;;24.23;3.20;;;;;;;;;;5059633;28;20031;-75
2023/12/29 06:17:58;;;;;;;21.45;4.07;;;;;;;;;;5054593;28;20029;-74
2023/12/29 06:20:24;;;;;;;18.58;2.75;;;;;;;;;;5047546;28;20477;-74
2023/12/29 06:22:51;;;;;;;23.88;3.13;;;;;;;;;;5060002;28;20039;-73
2023/12/29 06:25:17;;;;;;;22.30;3.38;;;;;;;;;;5069811;28;20012;-73
2023/12/29 06:27:43;;;;;;;23.25;3.47;;;;;;;;;;5060370;28;20021;-74
2023/12/29 06:30:10;;;;;;;23.25;3.60;;;;;;;;;;5049642;28;20009;-73
2023/12/29 06:32:36;;;;;;;21.45;3.05;;;;;;;;;;5054879;28;20020;-74
2023/12/29 06:35:03;;;;;;;19.80;3.38;;;;;;;;;;5069366;28;20032;-74
2023/12/29 06:37:29;;;;;;;26.65;3.53;;;;;;;;;;5056459;28;20037;-74
2023/12/29 06:39:55;;;;;;;24.23;3.40;;;;;;;;;;5047721;28;20025;-74
2023/12/29 06:42:22;;;;;;;23.55;3.25;;;;;;;;;;5058704;28;20005;-74
2023/12/29 06:44:48;;;;;;;22.50;3.08;;;;;;;;;;5059285;28;20148;-74
2023/12/29 06:47:14;;;;;;;19.85;3.38;;;;;;;;;;5060839;28;20507;-74
2023/12/29 06:49:41;;;;;;;23.45;4.05;;;;;;;;;;5060971;28;20021;-74
2023/12/29 06:52:07;;;;;;;28.33;4.25;;;;;;;;;;5059081;28;20022;-74
2023/12/29 06:54:34;;;;;;;33.05;4.15;;;;;;;;;;5059431;28;20013;-74
2023/12/29 06:57:00;;;;;;;28.60;3.88;;;;;;;;;;5053852;28;20020;-74
2023/12/29 06:59:26;;;;;;;24.38;4.18;;;;;;;;;;5059368;28;20021;-73
2023/12/29 07:01:52;;;;;;;25.38;3.38;;;;;;;;;;5057135;28;20008;-74
2023/12/29 07:04:18;;;;;;;20.70;3.38;;;;;;;;;;5055446;28;20015;-74
2023/12/29 07:06:44;;;;;;;25.88;3.50;;;;;;;;;;5052432;28;20021;-73
2023/12/29 07:09:10;;;;;;;22.27;3.85;;;;;;;;;;5055911;28;20074;-74
2023/12/29 07:11:37;;;;;;;18.45;3.97;;;;;;;;;;5055645;28;20385;-74
2023/12/29 07:14:03;;;;;;;18.95;3.90;;;;;;;;;;5056179;28;20025;-73
2023/12/29 07:16:29;;;;;;;17.45;3.30;;;;;;;;;;5058981;28;20100;-73
2023/12/29 07:18:55;;;;;;;21.90;3.45;;;;;;;;;;5050979;28;20151;-73
2023/12/29 07:21:21;;;;;;;23.67;3.15;;;;;;;;;;5048675;28;20009;-73
2023/12/29 07:23:47;;;;;;;15.55;3.50;;;;;;;;;;5051357;28;20051;-74
2023/12/29 07:26:13;;;;;;;26.95;3.30;;;;;;;;;;5052166;28;20080;-73
2023/12/29 07:28:39;;;;;;;24.80;3.28;;;;;;;;;;5062960;28;20019;-73
2023/12/29 07:31:05;;;;;;;23.50;3.42;;;;;;;;;;5056694;28;20409;-73
2023/12/29 07:33:31;;;;;;;19.67;2.95;;;;;;;;;;5058903;28;20309;-73
2023/12/29 07:35:57;;;;;;;26.73;3.88;;;;;;;;;;5057372;28;20028;-73
2023/12/29 07:38:24;;;;;;;22.15;3.85;;;;;;;;;;5060161;28;20017;-74
2023/12/29 07:40:50;;;;;;;24.40;5.03;;;;;;;;;;5061739;28;20115;-73
2023/12/29 07:43:16;;;;;;;21.15;2.70;;;;;;;;;;5058750;28;20012;-73
2023/12/29 07:45:45;;;;;;;19.55;2.53;;;;;;;;;;5046264;28;20389;-74
2023/12/29 07:48:11;;;;;;;20.92;2.70;;;;;;;;;;5056473;28;20025;-73
2023/12/29 07:50:37;;;;;;;22.55;3.30;;;;;;;;;;5045592;28;20009;-73
2023/12/29 07:53:05;;;;;;;18.63;2.88;;;;;;;;;;5048651;28;20019;-73
2023/12/29 07:55:31;;;;;;;20.02;2.70;;;;;;;;;;5049521;28;20021;-73
2023/12/29 07:57:57;;;;;;;21.70;3.53;;;;;;;;;;5052137;28;20017;-73
2023/12/29 08:00:24;;;;;;;19.38;2.95;;;;;;;;;;5051986;28;20143;-73
2023/12/29 08:02:51;;;;;;;24.30;3.47;;;;;;;;;;5052282;28;20045;-73
2023/12/29 08:05:17;;;;;;;23.67;2.97;;;;;;;;;;5070349;28;20032;-73
2023/12/29 08:07:43;;;;;;;18.13;2.78;;;;;;;;;;5072201;28;20417;-73
2023/12/29 08:10:09;;;;;;;16.40;3.10;;;;;;;;;;5053821;28;20401;-73
2023/12/29 08:12:35;;;;;;;14.65;2.70;;;;;;;;;;5052082;28;20036;-73
2023/12/29 08:15:02;;;;;;;19.75;2.45;;;;;;;;;;5067208;28;20027;-73
2023/12/29 08:17:29;;;;;;;21.35;3.17;;;;;;;;;;5070663;28;20100;-74
2023/12/29 08:19:55;;;;;;;12.95;2.47;;;;;;;;;;5054791;28;20381;-74
2023/12/29 08:22:21;;;;;;;18.00;3.05;;;;;;;;;;5051719;28;20024;-74
2023/12/29 08:24:48;;;;;;;19.45;2.58;;;;;;;;;;5058350;28;20481;-73
2023/12/29 08:27:14;;;;;;;21.52;2.78;;;;;;;;;;5037452;28;20089;-75
2023/12/29 08:29:40;;;;;;;13.98;2.10;;;;;;;;;;5062285;28;20166;-74
2023/12/29 08:32:06;;;;;;;16.58;2.60;;;;;;;;;;5070171;28;20020;-74
2023/12/29 08:34:33;;;;;;;17.42;2.53;;;;;;;;;;5060760;28;20033;-74
2023/12/29 08:37:00;;;;;;;17.50;3.20;;;;;;;;;;5050033;28;20033;-74
2023/12/29 08:39:26;;;;;;;17.13;3.13;;;;;;;;;;5058612;28;20040;-74
2023/12/29 08:41:52;;;;;;;18.20;2.72;;;;;;;;;;5069630;28;20528;-74
2023/12/29 08:44:18;;;;;;;14.05;2.15;;;;;;;;;;5063955;28;20780;-74
2023/12/29 08:46:44;;;;;;;27.73;3.17;;;;;;;;;;5049962;28;20021;-74
2023/12/29 08:49:10;;;;;;;22.08;3.53;;;;;;;;;;5049098;28;20103;-74
2023/12/29 08:51:36;;;;;;;22.42;2.80;;;;;;;;;;5048610;28;20105;-74
2023/12/29 08:54:02;;;;;;;16.73;2.78;;;;;;;;;;5052876;28;20472;-74
2023/12/29 08:56:29;;;;;;;25.70;2.63;;;;;;;;;;5050496;28;20024;-74
2023/12/29 08:58:55;;;;;;;22.65;2.97;;;;;;;;;;5052763;28;20095;-74
2023/12/29 09:01:21;;;;;;;22.67;3.53;;;;;;;;;;5050586;28;20005;-75
2023/12/29 09:03:47;;;;;;;24.77;2.72;;;;;;;;;;5050575;28;20107;-74
2023/12/29 09:06:13;;;;;;;21.00;2.97;;;;;;;;;;5048235;28;20117;-74
2023/12/29 09:08:40;;;;;;;24.42;4.03;;;;;;;;;;5048986;28;20013;-74
2023/12/29 09:11:06;;;;;;;20.48;2.53;;;;;;;;;;5051494;28;20043;-74
2023/12/29 09:13:32;;;;;;;23.25;3.13;;;;;;;;;;5047825;28;20009;-75
2023/12/29 09:15:59;;;;;;;18.10;2.85;;;;;;;;;;5049586;28;20117;-74
2023/12/29 09:18:25;;;;;;;19.80;2.53;;;;;;;;;;5048453;28;20451;-74
2023/12/29 09:20:51;;;;;;;15.75;2.85;;;;;;;;;;5049033;28;20024;-74
2023/12/29 09:23:17;;;;;;;17.30;2.67;;;;;;;;;;5048890;28;20005;-74
2023/12/29 09:25:43;;;;;;;18.27;2.63;;;;;;;;;;5048658;28;20520;-74
2023/12/29 09:28:09;;;;;;;20.13;2.33;;;;;;;;;;5048617;28;20075;-74
2023/12/29 09:30:35;;;;;;;19.90;2.97;;;;;;;;;;5048823;28;20017;-74
2023/12/29 09:33:01;;;;;;;21.30;2.75;;;;;;;;;;5050500;28;20091;-74
2023/12/29 09:35:27;;;;;;;15.60;2.65;;;;;;;;;;5059660;28;20033;-74
2023/12/29 09:37:53;;;;;;;16.65;2.83;;;;;;;;;;5069179;28;20016;-75
2023/12/29 09:40:20;;;;;;;19.20;3.05;;;;;;;;;;5058677;28;20024;-74
2023/12/29 09:42:46;;;;;;;18.27;2.55;;;;;;;;;;5048153;28;20109;-74
2023/12/29 09:45:13;;;;;;;13.80;2.65;;;;;;;;;;5057627;28;20017;-74
2023/12/29 09:47:40;;;;;;;21.38;2.58;;;;;;;;;;5068772;28;20066;-74
2023/12/29 09:50:13;;;;;;;13.75;2.13;;;;;;;;;;5062644;28;20393;-74
2023/12/29 09:52:40;;;;;;;16.88;3.47;;;;;;;;;;5048000;28;20040;-74
2023/12/29 09:55:10;;;;;;;17.10;2.35;;;;;;;;;;5055497;28;20070;-74
2023/12/29 09:57:37;;;;;;;17.17;2.75;;;;;;;;;;5069395;28;20021;-74
2023/12/29 10:00:03;;;;;;;16.13;2.22;;;;;;;;;;5062806;28;20512;-74
2023/12/29 10:02:30;;;;;;;16.27;3.00;;;;;;;;;;5048463;28;20556;-74
2023/12/29 10:04:56;;;;;;;9.45;1.70;;;;;;;;;;5052278;28;20278;-74
2023/12/29 10:07:26;;;;;;;13.60;1.80;;;;;;;;;;5068933;28;20016;-74
2023/12/29 10:09:58;;;;;;;17.90;3.30;;;;;;;;;;5065409;28;20017;-74
2023/12/29 10:12:25;;;;;;;17.33;2.08;;;;;;;;;;5047887;28;20090;-74
2023/12/29 10:15:05;;;;;;;9.98;2.58;;;;;;;;;;5051969;28;20038;-74
2023/12/29 10:17:31;;;;;;;;;;;;;;;;;;5069398;28;20021;-74
2023/12/29 10:20:10;;;;;;;14.70;2.35;;;;;;;;;;5066548;28;19912;-74
2023/12/29 10:22:36;;;;;;;20.40;1.98;;;;;;;;;;5050279;28;20012;-74
2023/12/29 10:25:02;;;;;;;14.52;1.75;;;;;;;;;;5052197;28;20013;-74
2023/12/29 10:27:28;;;;;;;13.10;1.48;;;;;;;;;;5069676;28;20039;-74
2023/12/29 10:29:54;;;;;;;14.63;1.60;;;;;;;;;;5066809;28;20066;-74
2023/12/29 10:32:20;;;;;;;17.35;2.42;;;;;;;;;;5057249;28;20025;-74
2023/12/29 10:34:47;;;;;;;13.60;1.60;;;;;;;;;;5048108;28;20128;-74
2023/12/29 10:37:22;;;;;;;8.90;1.40;;;;;;;;;;5067476;28;20472;-74
2023/12/29 10:39:57;;;;;;;16.95;1.85;;;;;;;;;;5069203;28;20258;-74
2023/12/29 10:42:23;;;;;;;10.98;1.95;;;;;;;;;;5028239;28;20111;-74
2023/12/29 10:45:04;;;;;;;19.30;2.20;;;;;;;;;;5028421;28;20049;-74
2023/12/29 10:47:30;;;;;;;16.60;2.65;;;;;;;;;;5046275;28;20035;-74
2023/12/29 10:50:00;;;;;;;19.13;2.70;;;;;;;;;;5046804;28;20135;-74
2023/12/29 10:52:26;;;;;;;16.40;2.80;;;;;;;;;;5046042;28;20017;-74
2023/12/29 10:55:04;;;;;;;17.17;1.95;;;;;;;;;;5068103;28;20017;-74
2023/12/29 10:57:30;;;;;;;19.10;2.72;;;;;;;;;;5031580;28;20083;-74
2023/12/29 10:59:56;;;;;;;12.77;1.70;;;;;;;;;;5040697;28;20400;-74
2023/12/29 11:02:22;;;;;;;11.27;1.98;;;;;;;;;;5050673;28;20016;-74
2023/12/29 11:04:50;;;;;;;12.18;2.65;;;;;;;;;;5046888;28;20389;-74
2023/12/29 11:07:16;;;;;;;13.82;2.22;;;;;;;;;;5049677;28;20060;-74
2023/12/29 11:09:42;;;;;;;15.27;2.40;;;;;;;;;;5054940;28;20025;-74
2023/12/29 11:12:10;;;;;;;9.23;1.80;;;;;;;;;;5050539;28;20092;-74
2023/12/29 11:14:36;;;;;;;11.15;1.95;;;;;;;;;;5048687;28;20020;-73
2023/12/29 11:17:04;;;;;;;11.57;2.20;;;;;;;;;;5062831;28;20035;-74
2023/12/29 11:19:30;;;;;;;13.82;1.92;;;;;;;;;;5067221;28;20020;-74
2023/12/29 11:21:56;;;;;;;15.40;2.13;;;;;;;;;;5054516;28;20150;-74
2023/12/29 11:24:23;;;;;;;18.67;2.08;;;;;;;;;;5047123;28;20155;-74
2023/12/29 11:26:53;;;;;;;15.00;2.03;;;;;;;;;;5046837;28;20086;-74
2023/12/29 11:29:19;;;;;;;16.33;1.88;;;;;;;;;;5047942;28;20845;-74
2023/12/29 11:31:48;;;;;;;12.48;1.65;;;;;;;;;;5059375;28;20017;-74
2023/12/29 11:34:14;;;;;;;9.02;1.40;;;;;;;;;;5049846;28;20041;-74
2023/12/29 11:36:44;;;;;;;23.25;2.83;;;;;;;;;;5048817;28;20041;-74
2023/12/29 11:39:17;;;;;;;15.13;2.20;;;;;;;;;;5032531;28;20352;-74
2023/12/29 11:41:43;;;;;;;15.27;2.17;;;;;;;;;;5046735;28;20013;-74
2023/12/29 11:44:09;;;;;;;14.48;2.30;;;;;;;;;;5071888;28;20070;-74
2023/12/29 11:46:42;;;;;;;12.25;2.45;;;;;;;;;;5052943;28;20022;-75
2023/12/29 11:49:09;;;;;;;18.33;2.10;;;;;;;;;;5050223;28;20021;-74
2023/12/29 11:51:49;;;;;;;17.58;3.60;;;;;;;;;;5054749;28;20021;-74
2023/12/29 11:54:27;;;;;;;15.15;2.60;;;;;;;;;;5071489;28;20044;-74
2023/12/29 11:56:54;;;;;;;11.93;1.75;;;;;;;;;;5063483;28;20052;-74
2023/12/29 11:59:21;;;;;;;15.18;1.73;;;;;;;;;;5051348;28;20021;-74
2023/12/29 12:01:51;;;;;;;17.13;2.17;;;;;;;;;;5056166;28;20013;-74
2023/12/29 12:04:40;;;;;;;12.52;2.30;;;;;;;;;;5071031;28;20021;-74
2023/12/29 12:07:13;;;;;;;11.73;2.55;;;;;;;;;;5062810;28;20021;-74
2023/12/29 12:09:39;;;;;;;13.23;1.83;;;;;;;;;;5049849;28;20043;-74
2023/12/29 12:12:06;;;;;;;11.02;1.52;;;;;;;;;;5057259;28;20396;-74
2023/12/29 12:14:50;;;;;;;16.80;2.00;;;;;;;;;;5069522;28;20025;-74
2023/12/29 12:17:29;;;;;;;16.95;2.30;;;;;;;;;;5062907;28;20025;-74
2023/12/29 12:19:59;;;;;;;16.65;2.60;;;;;;;;;;5053271;28;20017;-74
2023/12/29 12:22:25;;;;;;;16.95;2.10;;;;;;;;;;5057361;28;20016;-74
2023/12/29 12:24:58;;;;;;;14.68;2.40;;;;;;;;;;5053030;28;20033;-74
2023/12/29 12:27:26;;;;;;;15.40;2.35;;;;;;;;;;5056095;28;20074;-74
2023/12/29 12:29:57;;;;;;;15.02;2.25;;;;;;;;;;5056044;28;20044;-74
2023/12/29 12:32:23;;;;;;;15.57;2.97;;;;;;;;;;5060536;28;20017;-74
2023/12/29 12:34:49;;;;;;;18.35;2.75;;;;;;;;;;5056247;28;20040;-74
2023/12/29 12:37:19;;;;;;;13.68;2.58;;;;;;;;;;5053534;28;20059;-74
2023/12/29 12:39:45;;;;;;;16.40;2.53;;;;;;;;;;5069153;28;20009;-74
2023/12/29 12:42:11;;;;;;;15.25;2.17;;;;;;;;;;5065074;28;20019;-76
2023/12/29 12:44:42;;;;;;;19.08;2.60;;;;;;;;;;5048809;28;20374;-74
2023/12/29 12:47:10;;;;;;;15.57;2.35;;;;;;;;;;5048134;28;20021;-74
2023/12/29 12:49:36;;;;;;;15.20;2.65;;;;;;;;;;5048783;28;20025;-74
2023/12/29 12:52:02;;;;;;;9.80;2.00;;;;;;;;;;5047256;28;20045;-74
2023/12/29 12:54:28;;;;;;;10.70;1.85;;;;;;;;;;5045641;28;20009;-74
2023/12/29 12:56:55;;;;;;;14.68;2.10;;;;;;;;;;5059153;28;20555;-74
2023/12/29 12:59:21;;;;;;;16.75;2.63;;;;;;;;;;5061157;28;20534;-74
2023/12/29 13:01:47;;;;;;;12.90;1.98;;;;;;;;;;5064955;28;20012;-74
2023/12/29 13:04:14;;;;;;;14.65;2.38;;;;;;;;;;5061511;28;20025;-74
2023/12/29 13:06:41;;;;;;;9.70;2.20;;;;;;;;;;5053131;28;20016;-75
2023/12/29 13:09:17;;;;;;;11.80;2.25;;;;;;;;;;5069244;28;20020;-74
2023/12/29 13:11:43;;;;;;;10.07;1.90;;;;;;;;;;5065209;28;20040;-74
2023/12/29 13:14:09;;;;;;;11.25;2.10;;;;;;;;;;5061391;28;20019;-74
2023/12/29 13:16:36;;;;;;;17.02;2.03;;;;;;;;;;5057644;28;20116;-75
2023/12/29 13:19:21;;;;;;;17.35;1.90;;;;;;;;;;5058687;28;20013;-74
2023/12/29 13:21:55;;;;;;;7.78;1.60;;;;;;;;;;5055863;28;20017;-74
2023/12/29 13:24:21;;;;;;;16.42;1.95;;;;;;;;;;5057074;28;20497;-74
2023/12/29 13:26:52;;;;;;;9.45;1.70;;;;;;;;;;5054633;28;20488;-75
2023/12/29 13:29:18;;;;;;;13.65;1.80;;;;;;;;;;5066155;28;20021;-75
2023/12/29 13:31:45;;;;;;;13.93;2.10;;;;;;;;;;5070036;28;20016;-74
2023/12/29 13:34:17;;;;;;;16.40;1.33;;;;;;;;;;5051980;28;20187;-74
2023/12/29 13:36:55;;;;;;;18.52;2.50;;;;;;;;;;5048022;28;20029;-74
2023/12/29 13:39:21;;;;;;;12.65;1.65;;;;;;;;;;5066570;28;20556;-75
2023/12/29 13:41:47;;;;;;;16.77;2.35;;;;;;;;;;5069384;28;20100;-75
2023/12/29 13:44:14;;;;;;;10.45;1.63;;;;;;;;;;5052604;28;20017;-75
2023/12/29 13:46:40;;;;;;;12.93;2.30;;;;;;;;;;5053992;28;20047;-75
2023/12/29 13:49:06;;;;;;;12.38;2.00;;;;;;;;;;5059520;28;20032;-75
2023/12/29 13:51:32;;;;;;;15.05;1.88;;;;;;;;;;5055931;28;20012;-75
2023/12/29 13:54:03;;;;;;;17.48;2.95;;;;;;;;;;5061779;28;20021;-75
2023/12/29 13:56:29;;;;;;;7.93;1.45;;;;;;;;;;5059113;28;20107;-75
2023/12/29 13:58:55;;;;;;;13.40;2.67;;;;;;;;;;5059386;28;20013;-75
2023/12/29 14:01:22;;;;;;;13.57;1.98;;;;;;;;;;5058204;28;20017;-74
2023/12/29 14:03:55;;;;;;;15.25;2.85;;;;;;;;;;5059300;28;20036;-75
2023/12/29 14:06:22;;;;;;;13.50;1.63;;;;;;;;;;5067399;28;20027;-74
2023/12/29 14:08:48;;;;;;;12.75;2.25;;;;;;;;;;5061689;28;20020;-74
2023/12/29 14:11:15;;;;;;;19.17;3.47;;;;;;;;;;5058642;28;20507;-74
2023/12/29 14:13:44;;;;;;;14.18;2.33;;;;;;;;;;5066006;28;20164;-75
2023/12/29 14:16:10;;;;;;;17.02;2.50;;;;;;;;;;5053653;28;20191;-75
2023/12/29 14:18:44;;;;;;;12.48;2.50;;;;;;;;;;5056830;28;20024;-74
2023/12/29 14:21:23;;;;;;;12.25;2.00;;;;;;;;;;5067846;28;20005;-74
2023/12/29 14:24:03;;;;;;;16.63;2.25;;;;;;;;;;5058644;28;20119;-74
2023/12/29 14:26:29;;;;;;;13.18;2.15;;;;;;;;;;5068225;28;20031;-74
2023/12/29 14:29:09;;;;;;;9.82;2.13;;;;;;;;;;5063400;28;20178;-74
2023/12/29 14:31:44;;;;;;;9.48;1.63;;;;;;;;;;5059396;28;20013;-74